Whitt, Texas
Current Conditions -  °F | °C
As of 3:53 PM on Saturday 25 Oct 2014 (Local Time) from KMWL Reporting Station
Clear Clear  
Wind Chill: 89°   Ceiling: Unl
Heat Index: 89°   Visibility: 10mi
Dew Point: 55°   Wind: 9mph
Humidity: 31%   Direction: 170°S
Pressure: 30.05"   Gusts: NA
Location:  32.96°N, 98.02°W
Report Text: KMWL 252053Z AUTO 17008KT 10SM CLR 32/13 A3005 RMK AO2 SLP163 T03170128 56022
Loading
Personal Weather Stations






























Interactive Weather Map
Tropical Storm Tracking
New forecast layout! Learn more

10-Day Weather Forecast

Advertisements
Track Severe Weather on mobile